Terminal Aerodrome Forecast
Issued by NWS

Home | Current Version | Previous Version | Text Only | Print | Product List | Glossary On
Versions: 1 2 3 4 5 6 7 8 9 10 11 12 13 14 15 16 17
781
FTUS42 KTBW 211513 AAA
TAFPIE
TAF AMD
KPIE 211513Z 2115/2212 12009KT P6SM VCSH SCT050 BKN250
     FM211800 14008KT P6SM VCSH SCT020 BKN050
      TEMPO 2118/2122 4SM SHRA BKN020
     FM212200 VRB05KT P6SM VCSH SCT030 BKN100
     FM220100 VRB03KT P6SM SCT100 BKN250
     FM220800 VRB03KT 5SM BR SCT005 SCT250
      TEMPO 2209/2212 2SM BR BKN005=

USA.gov is the U.S. government's official web portal to all federal, state and local government web resources and services.